sensor_id;sensor_type;location;lat;lon;timestamp;temperature;humidity
40638;DHT22;26336;44.696;10.622;2023-02-28T00:01:15;5.50;99.90
40638;DHT22;26336;44.696;10.622;2023-02-28T00:04:18;5.50;99.90
40638;DHT22;26336;44.696;10.622;2023-02-28T00:07:23;5.50;99.90
40638;DHT22;26336;44.696;10.622;2023-02-28T00:10:29;5.40;99.90
40638;DHT22;26336;44.696;10.622;2023-02-28T00:13:35;5.40;99.90
40638;DHT22;26336;44.696;10.622;2023-02-28T00:16:41;5.40;99.90
40638;DHT22;26336;44.696;10.622;2023-02-28T00:19:44;5.50;99.90
40638;DHT22;26336;44.696;10.622;2023-02-28T00:22:50;5.50;99.90
40638;DHT22;26336;44.696;10.622;2023-02-28T00:25:55;5.50;99.90
40638;DHT22;26336;44.696;10.622;2023-02-28T00:28:58;5.60;99.90
40638;DHT22;26336;44.696;10.622;2023-02-28T00:32:03;5.60;99.90
40638;DHT22;26336;44.696;10.622;2023-02-28T00:35:09;5.50;99.90
40638;DHT22;26336;44.696;10.622;2023-02-28T00:38:15;5.40;99.90
40638;DHT22;26336;44.696;10.622;2023-02-28T00:41:19;5.50;99.90
40638;DHT22;26336;44.696;10.622;2023-02-28T00:44:24;5.50;99.90
40638;DHT22;26336;44.696;10.622;2023-02-28T00:47:28;5.60;99.90
40638;DHT22;26336;44.696;10.622;2023-02-28T00:50:32;5.40;99.90
40638;DHT22;26336;44.696;10.622;2023-02-28T00:53:36;5.50;99.90
40638;DHT22;26336;44.696;10.622;2023-02-28T00:56:40;5.30;99.90
40638;DHT22;26336;44.696;10.622;2023-02-28T00:59:44;5.20;99.90
40638;DHT22;26336;44.696;10.622;2023-02-28T01:02:48;5.30;99.90
40638;DHT22;26336;44.696;10.622;2023-02-28T01:05:52;5.20;99.90
40638;DHT22;26336;44.696;10.622;2023-02-28T01:08:59;5.20;99.90
40638;DHT22;26336;44.696;10.622;2023-02-28T01:12:03;5.30;99.90
40638;DHT22;26336;44.696;10.622;2023-02-28T01:15:11;5.20;99.90
40638;DHT22;26336;44.696;10.622;2023-02-28T01:18:15;5.30;99.90
40638;DHT22;26336;44.696;10.622;2023-02-28T01:21:20;5.40;99.90
40638;DHT22;26336;44.696;10.622;2023-02-28T01:24:24;5.50;99.90
40638;DHT22;26336;44.696;10.622;2023-02-28T01:27:29;5.60;99.90
40638;DHT22;26336;44.696;10.622;2023-02-28T01:30:32;5.30;99.90
40638;DHT22;26336;44.696;10.622;2023-02-28T01:33:37;5.10;99.90
40638;DHT22;26336;44.696;10.622;2023-02-28T01:36:41;5.10;99.90
40638;DHT22;26336;44.696;10.622;2023-02-28T01:39:45;5.20;99.90
40638;DHT22;26336;44.696;10.622;2023-02-28T01:42:49;5.30;99.90
40638;DHT22;26336;44.696;10.622;2023-02-28T01:45:54;5.50;99.90
40638;DHT22;26336;44.696;10.622;2023-02-28T01:49:12;5.50;99.90
40638;DHT22;26336;44.696;10.622;2023-02-28T01:52:17;5.60;99.90
40638;DHT22;26336;44.696;10.622;2023-02-28T01:55:25;5.30;99.90
40638;DHT22;26336;44.696;10.622;2023-02-28T01:58:34;5.30;99.90
40638;DHT22;26336;44.696;10.622;2023-02-28T02:01:39;5.30;99.90
40638;DHT22;26336;44.696;10.622;2023-02-28T02:05:03;5.40;99.90
40638;DHT22;26336;44.696;10.622;2023-02-28T02:08:13;5.50;99.90
40638;DHT22;26336;44.696;10.622;2023-02-28T02:11:20;5.60;99.90
40638;DHT22;26336;44.696;10.622;2023-02-28T02:14:43;5.50;99.90
40638;DHT22;26336;44.696;10.622;2023-02-28T02:18:17;5.50;99.90
40638;DHT22;26336;44.696;10.622;2023-02-28T02:21:49;5.60;99.90
40638;DHT22;26336;44.696;10.622;2023-02-28T02:41:53;5.60;99.90
40638;DHT22;26336;44.696;10.622;2023-02-28T02:45:07;5.60;99.90
40638;DHT22;26336;44.696;10.622;2023-02-28T02:48:18;5.50;99.90
40638;DHT22;26336;44.696;10.622;2023-02-28T02:51:24;5.20;99.90
40638;DHT22;26336;44.696;10.622;2023-02-28T02:54:36;5.00;99.90
40638;DHT22;26336;44.696;10.622;2023-02-28T02:57:53;5.00;99.90
40638;DHT22;26336;44.696;10.622;2023-02-28T03:01:01;5.10;99.90
40638;DHT22;26336;44.696;10.622;2023-02-28T03:04:12;5.10;99.90
40638;DHT22;26336;44.696;10.622;2023-02-28T03:07:17;5.00;99.90
40638;DHT22;26336;44.696;10.622;2023-02-28T03:10:28;5.00;99.90
40638;DHT22;26336;44.696;10.622;2023-02-28T03:27:07;5.00;99.90
40638;DHT22;26336;44.696;10.622;2023-02-28T03:33:37;5.20;99.90
40638;DHT22;26336;44.696;10.622;2023-02-28T03:36:48;5.20;99.90
40638;DHT22;26336;44.696;10.622;2023-02-28T03:40:20;5.20;99.90
40638;DHT22;26336;44.696;10.622;2023-02-28T03:43:27;5.00;99.90
40638;DHT22;26336;44.696;10.622;2023-02-28T03:46:36;4.90;99.90
40638;DHT22;26336;44.696;10.622;2023-02-28T03:49:55;4.90;99.90
40638;DHT22;26336;44.696;10.622;2023-02-28T03:56:37;4.70;99.90
40638;DHT22;26336;44.696;10.622;2023-02-28T04:00:25;4.50;99.90
40638;DHT22;26336;44.696;10.622;2023-02-28T04:03:31;4.40;99.90
40638;DHT22;26336;44.696;10.622;2023-02-28T04:06:36;4.40;99.90
40638;DHT22;26336;44.696;10.622;2023-02-28T04:09:41;4.30;99.90
40638;DHT22;26336;44.696;10.622;2023-02-28T04:12:45;4.50;99.90
40638;DHT22;26336;44.696;10.622;2023-02-28T04:15:49;4.60;99.90
40638;DHT22;26336;44.696;10.622;2023-02-28T04:18:53;4.50;99.90
40638;DHT22;26336;44.696;10.622;2023-02-28T04:21:57;4.40;99.90
40638;DHT22;26336;44.696;10.622;2023-02-28T04:25:00;4.50;99.90
40638;DHT22;26336;44.696;10.622;2023-02-28T04:28:04;4.60;99.90
40638;DHT22;26336;44.696;10.622;2023-02-28T04:31:08;4.60;99.90
40638;DHT22;26336;44.696;10.622;2023-02-28T04:34:12;4.70;99.90
40638;DHT22;26336;44.696;10.622;2023-02-28T04:37:16;4.70;99.90
40638;DHT22;26336;44.696;10.622;2023-02-28T04:40:20;4.80;99.90
40638;DHT22;26336;44.696;10.622;2023-02-28T04:43:29;4.80;99.90
40638;DHT22;26336;44.696;10.622;2023-02-28T04:46:33;4.80;99.90
40638;DHT22;26336;44.696;10.622;2023-02-28T04:49:37;4.90;99.90
40638;DHT22;26336;44.696;10.622;2023-02-28T04:52:41;5.00;99.90
40638;DHT22;26336;44.696;10.622;2023-02-28T04:55:45;5.10;99.90
40638;DHT22;26336;44.696;10.622;2023-02-28T04:58:49;5.00;99.90
40638;DHT22;26336;44.696;10.622;2023-02-28T05:01:55;4.90;99.90
40638;DHT22;26336;44.696;10.622;2023-02-28T05:04:59;4.90;99.90
40638;DHT22;26336;44.696;10.622;2023-02-28T05:08:04;4.90;99.90
40638;DHT22;26336;44.696;10.622;2023-02-28T05:11:21;5.00;99.90
40638;DHT22;26336;44.696;10.622;2023-02-28T05:14:25;5.00;99.90
40638;DHT22;26336;44.696;10.622;2023-02-28T05:17:29;5.00;99.90
40638;DHT22;26336;44.696;10.622;2023-02-28T05:20:33;5.00;99.90
40638;DHT22;26336;44.696;10.622;2023-02-28T05:23:37;5.00;99.90
40638;DHT22;26336;44.696;10.622;2023-02-28T05:26:42;5.10;99.90
40638;DHT22;26336;44.696;10.622;2023-02-28T05:29:46;5.00;99.90
40638;DHT22;26336;44.696;10.622;2023-02-28T05:32:51;5.00;99.90
40638;DHT22;26336;44.696;10.622;2023-02-28T05:35:55;4.90;99.90
40638;DHT22;26336;44.696;10.622;2023-02-28T05:38:59;4.70;99.90
40638;DHT22;26336;44.696;10.622;2023-02-28T05:42:03;4.70;99.90
40638;DHT22;26336;44.696;10.622;2023-02-28T05:45:08;4.70;99.90
40638;DHT22;26336;44.696;10.622;2023-02-28T05:48:12;4.70;99.90
40638;DHT22;26336;44.696;10.622;2023-02-28T05:51:16;4.80;99.90
40638;DHT22;26336;44.696;10.622;2023-02-28T05:54:20;4.80;99.90
40638;DHT22;26336;44.696;10.622;2023-02-28T05:57:24;4.90;99.90
40638;DHT22;26336;44.696;10.622;2023-02-28T06:00:28;5.00;99.90
40638;DHT22;26336;44.696;10.622;2023-02-28T06:03:32;5.10;99.90
40638;DHT22;26336;44.696;10.622;2023-02-28T06:06:37;5.10;99.90
40638;DHT22;26336;44.696;10.622;2023-02-28T06:09:40;5.20;99.90
40638;DHT22;26336;44.696;10.622;2023-02-28T06:12:44;5.20;99.90
40638;DHT22;26336;44.696;10.622;2023-02-28T06:15:48;5.20;99.90
40638;DHT22;26336;44.696;10.622;2023-02-28T06:18:53;5.00;99.90
40638;DHT22;26336;44.696;10.622;2023-02-28T06:21:59;4.70;99.90
40638;DHT22;26336;44.696;10.622;2023-02-28T06:25:05;4.50;99.90
40638;DHT22;26336;44.696;10.622;2023-02-28T06:28:09;4.40;99.90
40638;DHT22;26336;44.696;10.622;2023-02-28T06:31:16;4.40;99.90
40638;DHT22;26336;44.696;10.622;2023-02-28T06:34:20;4.50;99.90
40638;DHT22;26336;44.696;10.622;2023-02-28T06:37:24;4.50;99.90
40638;DHT22;26336;44.696;10.622;2023-02-28T06:40:31;4.40;99.90
40638;DHT22;26336;44.696;10.622;2023-02-28T06:43:40;4.50;99.90
40638;DHT22;26336;44.696;10.622;2023-02-28T06:46:45;4.70;99.90
40638;DHT22;26336;44.696;10.622;2023-02-28T06:49:49;4.70;99.90
40638;DHT22;26336;44.696;10.622;2023-02-28T06:52:53;4.80;99.90
40638;DHT22;26336;44.696;10.622;2023-02-28T06:55:59;4.80;99.90
40638;DHT22;26336;44.696;10.622;2023-02-28T06:59:04;4.90;99.90
40638;DHT22;26336;44.696;10.622;2023-02-28T07:02:08;5.00;99.90
40638;DHT22;26336;44.696;10.622;2023-02-28T07:05:12;5.00;99.90
40638;DHT22;26336;44.696;10.622;2023-02-28T07:08:17;5.10;99.90
40638;DHT22;26336;44.696;10.622;2023-02-28T07:11:22;5.10;99.90
40638;DHT22;26336;44.696;10.622;2023-02-28T07:14:26;5.10;99.90
40638;DHT22;26336;44.696;10.622;2023-02-28T07:17:30;5.10;99.90
40638;DHT22;26336;44.696;10.622;2023-02-28T07:20:35;5.00;99.90
40638;DHT22;26336;44.696;10.622;2023-02-28T07:23:40;5.00;99.90
40638;DHT22;26336;44.696;10.622;2023-02-28T07:26:45;5.10;99.90
40638;DHT22;26336;44.696;10.622;2023-02-28T07:29:49;5.10;99.90
40638;DHT22;26336;44.696;10.622;2023-02-28T07:32:53;5.10;99.90
40638;DHT22;26336;44.696;10.622;2023-02-28T07:36:26;5.10;99.90
40638;DHT22;26336;44.696;10.622;2023-02-28T07:39:30;5.10;99.90
40638;DHT22;26336;44.696;10.622;2023-02-28T07:42:35;5.20;99.90
40638;DHT22;26336;44.696;10.622;2023-02-28T07:45:41;5.10;99.90
40638;DHT22;26336;44.696;10.622;2023-02-28T07:48:47;5.10;99.90
40638;DHT22;26336;44.696;10.622;2023-02-28T07:51:50;5.10;99.90
40638;DHT22;26336;44.696;10.622;2023-02-28T07:54:54;5.10;99.90
40638;DHT22;26336;44.696;10.622;2023-02-28T07:57:58;5.10;99.90
40638;DHT22;26336;44.696;10.622;2023-02-28T08:01:07;5.10;99.90
40638;DHT22;26336;44.696;10.622;2023-02-28T08:04:11;5.10;99.90
40638;DHT22;26336;44.696;10.622;2023-02-28T08:07:16;5.10;99.90
40638;DHT22;26336;44.696;10.622;2023-02-28T08:10:21;5.20;99.90
40638;DHT22;26336;44.696;10.622;2023-02-28T08:13:26;5.20;99.90
40638;DHT22;26336;44.696;10.622;2023-02-28T08:16:30;5.30;99.90
40638;DHT22;26336;44.696;10.622;2023-02-28T08:19:34;5.30;99.90
40638;DHT22;26336;44.696;10.622;2023-02-28T08:22:38;5.20;99.90
40638;DHT22;26336;44.696;10.622;2023-02-28T08:25:42;5.20;99.90
40638;DHT22;26336;44.696;10.622;2023-02-28T08:28:46;5.30;99.90
40638;DHT22;26336;44.696;10.622;2023-02-28T08:31:50;5.30;99.90
40638;DHT22;26336;44.696;10.622;2023-02-28T08:34:54;5.30;99.90
40638;DHT22;26336;44.696;10.622;2023-02-28T08:37:58;5.10;99.90
40638;DHT22;26336;44.696;10.622;2023-02-28T08:41:07;5.10;99.90
40638;DHT22;26336;44.696;10.622;2023-02-28T08:44:13;5.00;99.90
40638;DHT22;26336;44.696;10.622;2023-02-28T08:47:17;5.10;99.90
40638;DHT22;26336;44.696;10.622;2023-02-28T08:50:21;5.10;99.90
40638;DHT22;26336;44.696;10.622;2023-02-28T08:53:26;5.10;99.90
40638;DHT22;26336;44.696;10.622;2023-02-28T08:56:30;5.20;99.90
40638;DHT22;26336;44.696;10.622;2023-02-28T08:59:35;5.20;99.90
40638;DHT22;26336;44.696;10.622;2023-02-28T09:02:40;5.20;99.90
40638;DHT22;26336;44.696;10.622;2023-02-28T09:05:58;5.30;99.90
40638;DHT22;26336;44.696;10.622;2023-02-28T09:09:02;5.40;99.90
40638;DHT22;26336;44.696;10.622;2023-02-28T09:12:09;5.40;99.90
40638;DHT22;26336;44.696;10.622;2023-02-28T09:15:13;5.40;99.90
40638;DHT22;26336;44.696;10.622;2023-02-28T09:18:17;5.50;99.90
40638;DHT22;26336;44.696;10.622;2023-02-28T09:21:21;5.50;99.90
40638;DHT22;26336;44.696;10.622;2023-02-28T09:24:25;5.60;99.90
40638;DHT22;26336;44.696;10.622;2023-02-28T09:27:29;5.70;99.90
40638;DHT22;26336;44.696;10.622;2023-02-28T09:30:33;5.70;99.90
40638;DHT22;26336;44.696;10.622;2023-02-28T09:33:37;5.80;99.90
40638;DHT22;26336;44.696;10.622;2023-02-28T09:36:41;5.90;99.90
40638;DHT22;26336;44.696;10.622;2023-02-28T09:39:45;5.90;99.90
40638;DHT22;26336;44.696;10.622;2023-02-28T09:42:52;5.90;99.90
40638;DHT22;26336;44.696;10.622;2023-02-28T09:49:28;6.00;99.90
40638;DHT22;26336;44.696;10.622;2023-02-28T09:52:36;6.00;99.90
40638;DHT22;26336;44.696;10.622;2023-02-28T09:55:54;6.00;99.90
40638;DHT22;26336;44.696;10.622;2023-02-28T09:59:14;6.00;99.90
40638;DHT22;26336;44.696;10.622;2023-02-28T10:06:13;6.10;99.90
40638;DHT22;26336;44.696;10.622;2023-02-28T10:09:27;6.00;99.90
40638;DHT22;26336;44.696;10.622;2023-02-28T10:12:33;6.10;99.90
40638;DHT22;26336;44.696;10.622;2023-02-28T10:15:40;6.00;99.90
40638;DHT22;26336;44.696;10.622;2023-02-28T10:18:58;6.00;99.90
40638;DHT22;26336;44.696;10.622;2023-02-28T10:22:08;6.00;99.90
40638;DHT22;26336;44.696;10.622;2023-02-28T10:25:19;6.00;99.90
40638;DHT22;26336;44.696;10.622;2023-02-28T10:28:25;6.10;99.90
40638;DHT22;26336;44.696;10.622;2023-02-28T10:31:29;6.10;99.90
40638;DHT22;26336;44.696;10.622;2023-02-28T10:34:33;6.10;99.90
40638;DHT22;26336;44.696;10.622;2023-02-28T10:37:41;6.10;99.90
40638;DHT22;26336;44.696;10.622;2023-02-28T10:40:45;6.20;99.90
40638;DHT22;26336;44.696;10.622;2023-02-28T10:43:49;6.20;99.90
40638;DHT22;26336;44.696;10.622;2023-02-28T10:46:54;6.20;99.90
40638;DHT22;26336;44.696;10.622;2023-02-28T10:49:58;6.30;99.90
40638;DHT22;26336;44.696;10.622;2023-02-28T10:56:30;6.30;99.90
40638;DHT22;26336;44.696;10.622;2023-02-28T10:59:35;6.40;99.90
40638;DHT22;26336;44.696;10.622;2023-02-28T11:02:39;6.40;99.90
40638;DHT22;26336;44.696;10.622;2023-02-28T11:05:46;6.40;99.90
40638;DHT22;26336;44.696;10.622;2023-02-28T11:08:53;6.50;99.90
40638;DHT22;26336;44.696;10.622;2023-02-28T11:11:58;6.50;99.90
40638;DHT22;26336;44.696;10.622;2023-02-28T11:15:28;6.60;99.90
40638;DHT22;26336;44.696;10.622;2023-02-28T11:18:39;6.60;99.90
40638;DHT22;26336;44.696;10.622;2023-02-28T11:21:54;6.60;99.90
40638;DHT22;26336;44.696;10.622;2023-02-28T11:25:06;6.60;99.90
40638;DHT22;26336;44.696;10.622;2023-02-28T11:28:35;6.70;99.90
40638;DHT22;26336;44.696;10.622;2023-02-28T11:31:39;6.60;99.90
40638;DHT22;26336;44.696;10.622;2023-02-28T11:34:43;6.70;99.90
40638;DHT22;26336;44.696;10.622;2023-02-28T11:37:48;6.70;99.90
40638;DHT22;26336;44.696;10.622;2023-02-28T11:47:12;6.70;99.90
40638;DHT22;26336;44.696;10.622;2023-02-28T11:50:21;6.70;99.90
40638;DHT22;26336;44.696;10.622;2023-02-28T11:57:47;6.80;99.90
40638;DHT22;26336;44.696;10.622;2023-02-28T12:04:38;6.80;99.90
40638;DHT22;26336;44.696;10.622;2023-02-28T12:07:56;6.80;99.90
40638;DHT22;26336;44.696;10.622;2023-02-28T12:11:07;6.80;99.90
40638;DHT22;26336;44.696;10.622;2023-02-28T12:18:28;6.80;99.90
40638;DHT22;26336;44.696;10.622;2023-02-28T12:28:12;6.80;99.90
40638;DHT22;26336;44.696;10.622;2023-02-28T12:31:18;6.90;99.90
40638;DHT22;26336;44.696;10.622;2023-02-28T12:34:32;6.90;99.90
40638;DHT22;26336;44.696;10.622;2023-02-28T12:37:46;7.00;99.90
40638;DHT22;26336;44.696;10.622;2023-02-28T12:41:00;6.90;99.90
40638;DHT22;26336;44.696;10.622;2023-02-28T12:44:12;6.90;99.90
40638;DHT22;26336;44.696;10.622;2023-02-28T12:47:18;7.00;99.90
40638;DHT22;26336;44.696;10.622;2023-02-28T12:50:23;7.10;99.90
40638;DHT22;26336;44.696;10.622;2023-02-28T12:53:35;7.00;99.90
40638;DHT22;26336;44.696;10.622;2023-02-28T13:00:09;6.90;99.90
40638;DHT22;26336;44.696;10.622;2023-02-28T13:04:00;6.90;99.90
40638;DHT22;26336;44.696;10.622;2023-02-28T13:10:47;7.00;99.90
40638;DHT22;26336;44.696;10.622;2023-02-28T13:14:02;7.10;99.90
40638;DHT22;26336;44.696;10.622;2023-02-28T13:20:34;7.10;99.90
40638;DHT22;26336;44.696;10.622;2023-02-28T13:40:33;7.20;99.90
40638;DHT22;26336;44.696;10.622;2023-02-28T13:47:23;7.30;99.90
40638;DHT22;26336;44.696;10.622;2023-02-28T14:05:01;7.50;99.90
40638;DHT22;26336;44.696;10.622;2023-02-28T14:07:52;7.50;99.90
40638;DHT22;26336;44.696;10.622;2023-02-28T14:11:06;7.70;99.90
40638;DHT22;26336;44.696;10.622;2023-02-28T14:17:40;7.70;99.90
40638;DHT22;26336;44.696;10.622;2023-02-28T14:20:46;7.70;99.90
40638;DHT22;26336;44.696;10.622;2023-02-28T14:24:38;7.80;99.90
40638;DHT22;26336;44.696;10.622;2023-02-28T14:28:07;7.90;99.90
40638;DHT22;26336;44.696;10.622;2023-02-28T14:38:31;8.00;99.90
40638;DHT22;26336;44.696;10.622;2023-02-28T14:41:39;7.90;99.90
40638;DHT22;26336;44.696;10.622;2023-02-28T14:44:54;7.80;99.90
40638;DHT22;26336;44.696;10.622;2023-02-28T14:48:01;7.70;99.90
40638;DHT22;26336;44.696;10.622;2023-02-28T14:51:06;7.40;99.90
40638;DHT22;26336;44.696;10.622;2023-02-28T14:54:15;7.40;99.90
40638;DHT22;26336;44.696;10.622;2023-02-28T14:57:30;7.40;99.90
40638;DHT22;26336;44.696;10.622;2023-02-28T15:00:48;7.40;99.90
40638;DHT22;26336;44.696;10.622;2023-02-28T15:04:02;7.40;99.90
40638;DHT22;26336;44.696;10.622;2023-02-28T15:07:14;7.50;99.90
40638;DHT22;26336;44.696;10.622;2023-02-28T15:13:36;7.60;99.90
40638;DHT22;26336;44.696;10.622;2023-02-28T15:16:42;7.60;99.90
40638;DHT22;26336;44.696;10.622;2023-02-28T15:19:51;7.50;99.90
40638;DHT22;26336;44.696;10.622;2023-02-28T15:22:56;7.50;99.90
40638;DHT22;26336;44.696;10.622;2023-02-28T15:26:00;7.50;99.90
40638;DHT22;26336;44.696;10.622;2023-02-28T15:29:13;7.50;99.90
40638;DHT22;26336;44.696;10.622;2023-02-28T15:35:33;7.50;99.90
40638;DHT22;26336;44.696;10.622;2023-02-28T15:38:37;7.50;99.90
40638;DHT22;26336;44.696;10.622;2023-02-28T15:41:41;7.50;99.90
40638;DHT22;26336;44.696;10.622;2023-02-28T15:44:45;7.50;99.90
40638;DHT22;26336;44.696;10.622;2023-02-28T15:47:50;7.50;99.90
40638;DHT22;26336;44.696;10.622;2023-02-28T15:50:57;7.50;99.90
40638;DHT22;26336;44.696;10.622;2023-02-28T15:54:06;7.50;99.90
40638;DHT22;26336;44.696;10.622;2023-02-28T15:57:20;7.50;99.90
40638;DHT22;26336;44.696;10.622;2023-02-28T16:00:27;7.50;99.90
40638;DHT22;26336;44.696;10.622;2023-02-28T16:03:53;7.50;99.90
40638;DHT22;26336;44.696;10.622;2023-02-28T16:10:02;7.40;99.90
40638;DHT22;26336;44.696;10.622;2023-02-28T16:13:08;7.50;99.90
40638;DHT22;26336;44.696;10.622;2023-02-28T16:16:18;7.50;99.90
40638;DHT22;26336;44.696;10.622;2023-02-28T16:19:23;7.40;99.90
40638;DHT22;26336;44.696;10.622;2023-02-28T16:22:27;7.40;99.90
40638;DHT22;26336;44.696;10.622;2023-02-28T16:25:40;7.40;99.90
40638;DHT22;26336;44.696;10.622;2023-02-28T16:28:45;7.40;99.90
40638;DHT22;26336;44.696;10.622;2023-02-28T16:31:49;7.40;99.90
40638;DHT22;26336;44.696;10.622;2023-02-28T16:34:53;7.40;99.90
40638;DHT22;26336;44.696;10.622;2023-02-28T16:37:57;7.40;99.90
40638;DHT22;26336;44.696;10.622;2023-02-28T16:41:01;7.40;99.90
40638;DHT22;26336;44.696;10.622;2023-02-28T16:44:12;7.40;99.90
40638;DHT22;26336;44.696;10.622;2023-02-28T16:47:16;7.40;99.90
40638;DHT22;26336;44.696;10.622;2023-02-28T16:50:23;7.40;99.90
40638;DHT22;26336;44.696;10.622;2023-02-28T16:53:27;7.40;99.90
40638;DHT22;26336;44.696;10.622;2023-02-28T16:56:31;7.40;99.90
40638;DHT22;26336;44.696;10.622;2023-02-28T16:59:36;7.40;99.90
40638;DHT22;26336;44.696;10.622;2023-02-28T17:02:40;7.40;99.90
40638;DHT22;26336;44.696;10.622;2023-02-28T17:05:44;7.40;99.90
40638;DHT22;26336;44.696;10.622;2023-02-28T17:08:50;7.40;99.90
40638;DHT22;26336;44.696;10.622;2023-02-28T17:11:54;7.40;99.90
40638;DHT22;26336;44.696;10.622;2023-02-28T17:14:59;7.40;99.90
40638;DHT22;26336;44.696;10.622;2023-02-28T17:18:05;7.40;99.90
40638;DHT22;26336;44.696;10.622;2023-02-28T17:21:14;7.40;99.90
40638;DHT22;26336;44.696;10.622;2023-02-28T17:24:19;7.40;99.90
40638;DHT22;26336;44.696;10.622;2023-02-28T17:27:23;7.40;99.90
40638;DHT22;26336;44.696;10.622;2023-02-28T17:30:27;7.40;99.90
40638;DHT22;26336;44.696;10.622;2023-02-28T17:33:31;7.30;99.90
40638;DHT22;26336;44.696;10.622;2023-02-28T17:36:37;7.30;99.90
40638;DHT22;26336;44.696;10.622;2023-02-28T17:39:41;7.30;99.90
40638;DHT22;26336;44.696;10.622;2023-02-28T17:42:45;7.30;99.90
40638;DHT22;26336;44.696;10.622;2023-02-28T17:45:50;7.30;99.90
40638;DHT22;26336;44.696;10.622;2023-02-28T17:48:54;7.30;99.90
40638;DHT22;26336;44.696;10.622;2023-02-28T17:51:58;7.30;99.90
40638;DHT22;26336;44.696;10.622;2023-02-28T17:55:03;7.40;99.90
40638;DHT22;26336;44.696;10.622;2023-02-28T17:58:09;7.40;99.90
40638;DHT22;26336;44.696;10.622;2023-02-28T18:01:15;7.40;99.90
40638;DHT22;26336;44.696;10.622;2023-02-28T18:04:20;7.40;99.90
40638;DHT22;26336;44.696;10.622;2023-02-28T18:07:24;7.40;99.90
40638;DHT22;26336;44.696;10.622;2023-02-28T18:10:28;7.40;99.90
40638;DHT22;26336;44.696;10.622;2023-02-28T18:13:32;7.30;99.90
40638;DHT22;26336;44.696;10.622;2023-02-28T18:16:37;7.30;99.90
40638;DHT22;26336;44.696;10.622;2023-02-28T18:19:42;7.30;99.90
40638;DHT22;26336;44.696;10.622;2023-02-28T18:22:46;7.20;99.90
40638;DHT22;26336;44.696;10.622;2023-02-28T18:25:51;7.20;99.90
40638;DHT22;26336;44.696;10.622;2023-02-28T18:28:57;7.20;99.90
40638;DHT22;26336;44.696;10.622;2023-02-28T18:32:01;7.20;99.90
40638;DHT22;26336;44.696;10.622;2023-02-28T18:35:07;7.10;99.90
40638;DHT22;26336;44.696;10.622;2023-02-28T18:38:17;7.10;99.90
40638;DHT22;26336;44.696;10.622;2023-02-28T18:41:25;7.10;99.90
40638;DHT22;26336;44.696;10.622;2023-02-28T18:44:32;7.10;99.90
40638;DHT22;26336;44.696;10.622;2023-02-28T18:47:36;7.20;99.90
40638;DHT22;26336;44.696;10.622;2023-02-28T18:50:40;7.20;99.90
40638;DHT22;26336;44.696;10.622;2023-02-28T18:53:45;7.30;99.90
40638;DHT22;26336;44.696;10.622;2023-02-28T18:56:49;7.30;99.90
40638;DHT22;26336;44.696;10.622;2023-02-28T18:59:53;7.30;99.90
40638;DHT22;26336;44.696;10.622;2023-02-28T19:02:57;7.20;99.90
40638;DHT22;26336;44.696;10.622;2023-02-28T19:06:01;7.30;99.90
40638;DHT22;26336;44.696;10.622;2023-02-28T19:09:09;7.20;99.90
40638;DHT22;26336;44.696;10.622;2023-02-28T19:12:13;7.30;99.90
40638;DHT22;26336;44.696;10.622;2023-02-28T19:15:19;7.30;99.90
40638;DHT22;26336;44.696;10.622;2023-02-28T19:18:23;7.40;99.90
40638;DHT22;26336;44.696;10.622;2023-02-28T19:21:27;7.40;99.90
40638;DHT22;26336;44.696;10.622;2023-02-28T19:24:31;7.40;99.90
40638;DHT22;26336;44.696;10.622;2023-02-28T19:27:35;7.40;99.90
40638;DHT22;26336;44.696;10.622;2023-02-28T19:30:44;7.40;99.90
40638;DHT22;26336;44.696;10.622;2023-02-28T19:33:48;7.40;99.90
40638;DHT22;26336;44.696;10.622;2023-02-28T19:36:55;7.40;99.90
40638;DHT22;26336;44.696;10.622;2023-02-28T19:39:59;7.40;99.90
40638;DHT22;26336;44.696;10.622;2023-02-28T19:43:03;7.30;99.90
40638;DHT22;26336;44.696;10.622;2023-02-28T19:46:08;7.20;99.90
40638;DHT22;26336;44.696;10.622;2023-02-28T19:49:13;7.20;99.90
40638;DHT22;26336;44.696;10.622;2023-02-28T19:52:17;7.10;99.90
40638;DHT22;26336;44.696;10.622;2023-02-28T19:55:21;7.20;99.90
40638;DHT22;26336;44.696;10.622;2023-02-28T19:58:26;7.20;99.90
40638;DHT22;26336;44.696;10.622;2023-02-28T20:01:30;7.20;99.90
40638;DHT22;26336;44.696;10.622;2023-02-28T20:04:34;7.30;99.90
40638;DHT22;26336;44.696;10.622;2023-02-28T20:07:38;7.30;99.90
40638;DHT22;26336;44.696;10.622;2023-02-28T20:10:42;7.30;99.90
40638;DHT22;26336;44.696;10.622;2023-02-28T20:13:46;7.30;99.90
40638;DHT22;26336;44.696;10.622;2023-02-28T20:16:51;7.30;99.90
40638;DHT22;26336;44.696;10.622;2023-02-28T20:19:56;7.00;99.90
40638;DHT22;26336;44.696;10.622;2023-02-28T20:23:00;6.90;99.90
40638;DHT22;26336;44.696;10.622;2023-02-28T20:26:05;7.00;99.90
40638;DHT22;26336;44.696;10.622;2023-02-28T20:29:09;7.00;99.90
40638;DHT22;26336;44.696;10.622;2023-02-28T20:32:16;7.10;99.90
40638;DHT22;26336;44.696;10.622;2023-02-28T20:35:20;7.10;99.90
40638;DHT22;26336;44.696;10.622;2023-02-28T20:38:23;7.10;99.90
40638;DHT22;26336;44.696;10.622;2023-02-28T20:41:27;7.20;99.90
40638;DHT22;26336;44.696;10.622;2023-02-28T20:44:31;7.20;99.90
40638;DHT22;26336;44.696;10.622;2023-02-28T20:47:35;7.20;99.90
40638;DHT22;26336;44.696;10.622;2023-02-28T20:50:39;7.20;99.90
40638;DHT22;26336;44.696;10.622;2023-02-28T20:53:43;7.20;99.90
40638;DHT22;26336;44.696;10.622;2023-02-28T20:56:47;7.20;99.90
40638;DHT22;26336;44.696;10.622;2023-02-28T20:59:51;7.20;99.90
40638;DHT22;26336;44.696;10.622;2023-02-28T21:02:56;7.10;99.90
40638;DHT22;26336;44.696;10.622;2023-02-28T21:06:02;7.10;99.90
40638;DHT22;26336;44.696;10.622;2023-02-28T21:09:07;7.10;99.90
40638;DHT22;26336;44.696;10.622;2023-02-28T21:12:12;7.10;99.90
40638;DHT22;26336;44.696;10.622;2023-02-28T21:15:16;7.10;99.90
40638;DHT22;26336;44.696;10.622;2023-02-28T21:18:20;7.10;99.90
40638;DHT22;26336;44.696;10.622;2023-02-28T21:21:24;7.10;99.90
40638;DHT22;26336;44.696;10.622;2023-02-28T21:24:28;7.10;99.90
40638;DHT22;26336;44.696;10.622;2023-02-28T21:27:32;7.10;99.90
40638;DHT22;26336;44.696;10.622;2023-02-28T21:30:37;7.10;99.90
40638;DHT22;26336;44.696;10.622;2023-02-28T21:33:43;7.10;99.90
40638;DHT22;26336;44.696;10.622;2023-02-28T21:36:48;7.00;99.90
40638;DHT22;26336;44.696;10.622;2023-02-28T21:39:52;7.00;99.90
40638;DHT22;26336;44.696;10.622;2023-02-28T21:42:56;6.90;99.90
40638;DHT22;26336;44.696;10.622;2023-02-28T21:46:04;6.60;99.90
40638;DHT22;26336;44.696;10.622;2023-02-28T21:49:08;6.70;99.90
40638;DHT22;26336;44.696;10.622;2023-02-28T21:52:12;6.70;99.90
40638;DHT22;26336;44.696;10.622;2023-02-28T21:55:16;6.70;99.90
40638;DHT22;26336;44.696;10.622;2023-02-28T21:58:20;6.80;99.90